createdAt,value
2023-02-27T00:00:15.627Z,99061.75
2023-02-27T00:02:48.651Z,99066.03
2023-02-27T00:05:15.803Z,99067.69
2023-02-27T00:07:42.873Z,99060.09
2023-02-27T00:10:11.057Z,99067.47
2023-02-27T00:12:38.927Z,99069.94
2023-02-27T00:15:24.474Z,99064.41
2023-02-27T00:17:51.181Z,99059.28
2023-02-27T00:20:19.448Z,99052.94
2023-02-27T00:22:46.755Z,99050.69
2023-02-27T00:25:14.392Z,99053.97
2023-02-27T00:27:41.182Z,99061.72
2023-02-27T00:30:10.250Z,99060.09
2023-02-27T00:32:37.044Z,99050.06
2023-02-27T00:35:09.634Z,99060.53
2023-02-27T00:37:37.203Z,99057.22
2023-02-27T00:40:05.494Z,99057.66
2023-02-27T00:42:32.703Z,99060.53
2023-02-27T00:44:59.356Z,99060.91
2023-02-27T00:47:25.987Z,99058.03
2023-02-27T00:49:52.736Z,99058.44
2023-02-27T00:52:19.349Z,99060.91
2023-02-27T00:54:46.176Z,99054.97
2023-02-27T00:57:13.395Z,99051.47
2023-02-27T00:59:40.039Z,99064.78
2023-02-27T01:02:07.018Z,99060.88
2023-02-27T01:04:33.751Z,99053.53
2023-02-27T01:07:00.499Z,99067.66
2023-02-27T01:09:27.290Z,99063.53
2023-02-27T01:11:55.550Z,99065.59
2023-02-27T01:14:22.168Z,99056.78
2023-02-27T01:16:48.907Z,99064.16
2023-02-27T01:19:15.782Z,99051.88
2023-02-27T01:21:42.528Z,99048.59
2023-02-27T01:24:10.062Z,99054.13
2023-02-27T01:26:37.089Z,99060.50
2023-02-27T01:29:06.893Z,99046.56
2023-02-27T01:31:34.395Z,99048.63
2023-02-27T01:34:01.187Z,99059.47
2023-02-27T01:36:28.006Z,99038.78
2023-02-27T01:38:56.221Z,99042.09
2023-02-27T01:41:22.942Z,99054.34
2023-02-27T01:43:59.989Z,99047.78
2023-02-27T01:46:27.367Z,99042.88
2023-02-27T01:49:00.443Z,99041.63
2023-02-27T01:51:31.928Z,99053.50
2023-02-27T01:53:59.793Z,99041.84
2023-02-27T01:56:30.226Z,99051.44
2023-02-27T01:59:00.616Z,99042.44
2023-02-27T02:01:28.358Z,99044.72
2023-02-27T02:03:58.226Z,99040.00
2023-02-27T02:06:25.112Z,99032.25
2023-02-27T02:08:54.762Z,99041.63
2023-02-27T02:11:24.090Z,99043.28
2023-02-27T02:13:55.431Z,99040.63
2023-02-27T02:16:44.010Z,99037.56
2023-02-27T02:19:45.646Z,99025.31
2023-02-27T02:22:36.412Z,99035.53
2023-02-27T02:25:36.747Z,99032.06
2023-02-27T02:28:27.708Z,99040.84
2023-02-27T02:31:15.855Z,99049.03
2023-02-27T02:34:00.714Z,99045.53
2023-02-27T02:37:04.783Z,99045.34
2023-02-27T02:39:43.552Z,99033.47
2023-02-27T02:42:27.404Z,99035.72
2023-02-27T02:45:20.575Z,99048.19
2023-02-27T02:47:56.154Z,99040.22
2023-02-27T02:50:35.541Z,99040.22
2023-02-27T02:53:16.392Z,99040.00
2023-02-27T02:56:31.856Z,99041.44
2023-02-27T02:59:02.369Z,99047.16
2023-02-27T03:01:49.330Z,99044.06
2023-02-27T03:04:29.195Z,99057.19
2023-02-27T03:07:06.677Z,99051.25
2023-02-27T03:09:41.459Z,99047.97
2023-02-27T03:12:13.152Z,99044.72
2023-02-27T03:14:56.580Z,99042.44
2023-02-27T03:17:33.707Z,99046.56
2023-02-27T03:20:06.940Z,99046.56
2023-02-27T03:22:40.086Z,99047.97
2023-02-27T03:25:10.954Z,99048.59
2023-02-27T03:27:43.525Z,99056.16
2023-02-27T03:30:10.574Z,99060.00
2023-02-27T03:33:02.979Z,99069.63
2023-02-27T03:35:56.335Z,99063.69
2023-02-27T03:38:57.024Z,99064.13
2023-02-27T03:41:32.741Z,99073.53
2023-02-27T03:44:09.426Z,99066.56
2023-02-27T03:46:37.305Z,99056.34
2023-02-27T03:49:04.974Z,99076.19
2023-02-27T03:51:32.262Z,99069.81
2023-02-27T03:54:12.217Z,99072.47
2023-02-27T03:56:43.964Z,99077.38
2023-02-27T03:59:10.917Z,99072.88
2023-02-27T04:01:37.869Z,99074.09
2023-02-27T04:04:11.067Z,99083.88
2023-02-27T04:06:58.086Z,99089.00
2023-02-27T04:09:47.338Z,99088.97
2023-02-27T04:12:42.251Z,99084.50
2023-02-27T04:15:34.710Z,99090.00
2023-02-27T04:18:15.945Z,99087.72
2023-02-27T04:21:31.296Z,99080.78
2023-02-27T04:24:00.712Z,99093.25
2023-02-27T04:26:42.438Z,99088.56
2023-02-27T04:29:25.719Z,99086.94
2023-02-27T04:32:00.049Z,99093.69
2023-02-27T04:34:36.679Z,99088.56
2023-02-27T04:37:11.439Z,99077.91
2023-02-27T04:39:44.505Z,99084.03
2023-02-27T04:42:16.664Z,99088.53
2023-02-27T04:44:45.139Z,99089.34
2023-02-27T04:47:14.060Z,99086.47
2023-02-27T04:49:48.876Z,99094.66
2023-02-27T04:52:34.297Z,99091.19
2023-02-27T04:55:14.672Z,99093.84
2023-02-27T04:57:48.926Z,99077.09
2023-02-27T05:00:18.612Z,99087.72
2023-02-27T05:02:51.301Z,99093.84
2023-02-27T05:05:28.060Z,99087.31
2023-02-27T05:08:02.640Z,99088.13
2023-02-27T05:10:52.142Z,99090.59
2023-02-27T05:13:24.818Z,99095.28
2023-02-27T05:15:57.571Z,99099.94
2023-02-27T05:18:25.226Z,99097.91
2023-02-27T05:21:34.032Z,99106.88
2023-02-27T05:24:28.944Z,99106.44
2023-02-27T05:27:29.563Z,99104.63
2023-02-27T05:30:09.913Z,99115.22
2023-02-27T05:32:58.391Z,99116.63
2023-02-27T05:35:46.454Z,99114.41
2023-02-27T05:38:19.622Z,99121.81
2023-02-27T05:40:59.242Z,99123.03
2023-02-27T05:43:34.843Z,99123.66
2023-02-27T05:46:06.884Z,99125.28
2023-02-27T05:48:41.766Z,99121.56
2023-02-27T05:51:11.225Z,99125.84
2023-02-27T05:53:43.458Z,99133.41
2023-02-27T05:56:13.951Z,99134.63
2023-02-27T05:58:54.308Z,99132.97
2023-02-27T06:01:20.784Z,99131.56
2023-02-27T06:03:47.409Z,99130.31
2023-02-27T06:06:20.129Z,99123.16
2023-02-27T06:08:46.993Z,99127.25
2023-02-27T06:11:13.587Z,99128.91
2023-02-27T06:13:42.086Z,99128.91
2023-02-27T06:16:11.474Z,99142.19
2023-02-27T06:18:37.962Z,99135.16
2023-02-27T06:21:04.966Z,99137.81
2023-02-27T06:23:31.504Z,99142.16
2023-02-27T06:25:58.281Z,99143.13
2023-02-27T06:28:24.943Z,99142.31
2023-02-27T06:30:57.142Z,99158.91
2023-02-27T06:33:25.984Z,99154.19
2023-02-27T06:35:53.102Z,99152.56
2023-02-27T06:38:19.807Z,99160.78
2023-02-27T06:40:46.294Z,99154.44
2023-02-27T06:43:12.888Z,99153.81
2023-02-27T06:45:39.339Z,99152.41
2023-02-27T06:48:06.104Z,99153.66
2023-02-27T06:50:32.821Z,99149.38
2023-02-27T06:52:59.315Z,99151.25
2023-02-27T06:55:25.861Z,99151.91
2023-02-27T06:57:52.434Z,99160.09
2023-02-27T07:00:19.362Z,99161.53
2023-02-27T07:02:45.864Z,99167.72
2023-02-27T07:05:12.362Z,99168.13
2023-02-27T07:07:39.376Z,99161.41
2023-02-27T07:10:12.098Z,99167.78
2023-02-27T07:12:40.045Z,99163.06
2023-02-27T07:15:07.814Z,99175.38
2023-02-27T07:17:34.392Z,99166.78
2023-02-27T07:20:00.803Z,99176.22
2023-02-27T07:22:27.409Z,99178.69
2023-02-27T07:24:54.055Z,99179.94
2023-02-27T07:27:20.563Z,99181.19
2023-02-27T07:29:47.011Z,99180.41
2023-02-27T07:32:13.513Z,99178.16
2023-02-27T07:34:40.097Z,99182.47
2023-02-27T07:37:06.583Z,99185.38
2023-02-27T07:39:33.019Z,99175.34
2023-02-27T07:42:00.052Z,99183.94
2023-02-27T07:44:26.550Z,99184.16
2023-02-27T07:46:53.153Z,99184.97
2023-02-27T07:49:19.640Z,99175.75
2023-02-27T07:51:46.335Z,99187.44
2023-02-27T07:54:12.855Z,99178.88
2023-02-27T07:56:39.487Z,99182.13
2023-02-27T07:59:06.176Z,99182.94
2023-02-27T08:01:32.731Z,99182.94
2023-02-27T08:03:59.279Z,99176.00
2023-02-27T08:06:26.190Z,99186.44
2023-02-27T08:08:53.305Z,99188.72
2023-02-27T08:11:19.851Z,99186.22
2023-02-27T08:14:02.902Z,99172.91
2023-02-27T08:16:31.017Z,99169.84
2023-02-27T08:18:58.001Z,99179.91
2023-02-27T08:21:24.803Z,99179.84
2023-02-27T08:23:51.431Z,99174.75
2023-02-27T08:26:18.380Z,99182.50
2023-02-27T08:28:44.942Z,99181.28
2023-02-27T08:31:11.444Z,99180.84
2023-02-27T08:33:38.008Z,99183.72
2023-02-27T08:36:05.207Z,99178.78
2023-02-27T08:38:31.755Z,99182.28
2023-02-27T08:40:58.235Z,99187.19
2023-02-27T08:43:24.899Z,99188.41
2023-02-27T08:45:52.158Z,99182.66
2023-02-27T08:48:18.758Z,99193.06
2023-02-27T08:50:46.516Z,99193.50
2023-02-27T08:53:13.601Z,99195.50
2023-02-27T08:55:40.231Z,99187.09
2023-02-27T08:58:06.789Z,99195.28
2023-02-27T09:00:33.428Z,99198.75
2023-02-27T09:03:01.282Z,99198.50
2023-02-27T09:05:30.419Z,99200.94
2023-02-27T09:07:56.852Z,99202.75
2023-02-27T09:10:23.329Z,99206.81
2023-02-27T09:12:49.924Z,99202.69
2023-02-27T09:15:17.079Z,99203.47
2023-02-27T09:17:43.888Z,99200.16
2023-02-27T09:20:12.570Z,99197.44
2023-02-27T09:22:39.550Z,99204.53
2023-02-27T09:25:06.690Z,99199.97
2023-02-27T09:27:33.711Z,99212.06
2023-02-27T09:30:00.208Z,99197.06
2023-02-27T09:32:27.558Z,99199.84
2023-02-27T09:34:54.162Z,99202.84
2023-02-27T09:37:20.636Z,99202.56
2023-02-27T09:39:47.197Z,99203.34
2023-02-27T09:42:19.399Z,99202.88
2023-02-27T09:44:52.620Z,99199.97
2023-02-27T09:47:22.146Z,99194.09
2023-02-27T09:50:04.696Z,99197.75
2023-02-27T09:52:34.098Z,99197.63
2023-02-27T09:55:00.881Z,99201.75
2023-02-27T09:57:39.279Z,99206.81
2023-02-27T10:00:30.726Z,99210.69
2023-02-27T10:03:37.394Z,99200.28
2023-02-27T10:06:21.454Z,99208.63
2023-02-27T10:08:55.419Z,99207.66
2023-02-27T10:12:07.706Z,99203.94
2023-02-27T10:14:46.037Z,99210.25
2023-02-27T10:17:20.859Z,99214.63
2023-02-27T10:19:48.591Z,99204.91
2023-02-27T10:22:23.524Z,99216.59
2023-02-27T10:25:00.706Z,99222.31
2023-02-27T10:27:27.325Z,99218.06
2023-02-27T10:30:28.539Z,99223.19
2023-02-27T10:33:20.391Z,99223.78
2023-02-27T10:35:46.936Z,99221.13
2023-02-27T10:38:34.801Z,99212.91
2023-02-27T10:41:03.184Z,99221.63
2023-02-27T10:43:30.007Z,99227.94
2023-02-27T10:45:56.959Z,99228.16
2023-02-27T10:48:23.639Z,99229.25
2023-02-27T10:50:56.393Z,99230.72
2023-02-27T10:53:26.439Z,99218.72
2023-02-27T10:56:01.768Z,99227.88
2023-02-27T10:58:34.590Z,99226.47
2023-02-27T11:01:04.831Z,99230.75
2023-02-27T11:03:41.488Z,99232.31
2023-02-27T11:06:27.585Z,99216.16
2023-02-27T11:09:23.142Z,99222.03
2023-02-27T11:11:51.469Z,99214.16
2023-02-27T11:14:17.803Z,99208.97
2023-02-27T11:16:53.384Z,99210.25
2023-02-27T11:19:38.490Z,99215.03
2023-02-27T11:22:14.281Z,99213.56
2023-02-27T11:24:41.754Z,99209.47
2023-02-27T11:27:22.346Z,99207.59
2023-02-27T11:30:00.936Z,99200.13
2023-02-27T11:32:45.695Z,99211.47
2023-02-27T11:35:28.181Z,99207.38
2023-02-27T11:37:57.551Z,99199.91
2023-02-27T11:40:32.071Z,99192.94
2023-02-27T11:43:04.964Z,99187.63
2023-02-27T11:46:12.683Z,99193.81
2023-02-27T11:48:31.094Z,99192.19
2023-02-27T11:51:05.328Z,99189.69
2023-02-27T11:53:43.491Z,99196.00
2023-02-27T11:56:21.370Z,99188.22
2023-02-27T11:59:00.372Z,99183.91
2023-02-27T12:01:33.189Z,99187.97
2023-02-27T12:04:16.143Z,99194.31
2023-02-27T12:06:51.314Z,99180.63
2023-02-27T12:09:32.805Z,99178.34
2023-02-27T12:12:02.930Z,99189.78
2023-02-27T12:14:43.216Z,99178.25
2023-02-27T12:17:26.121Z,99183.31
2023-02-27T12:20:21.010Z,99162.41
2023-02-27T12:22:51.908Z,99178.00
2023-02-27T12:25:33.568Z,99164.72
2023-02-27T12:28:41.187Z,99161.41
2023-02-27T12:31:26.904Z,99171.16
2023-02-27T12:34:02.343Z,99167.22
2023-02-27T12:36:28.899Z,99163.25
2023-02-27T12:38:55.414Z,99161.91
2023-02-27T12:41:44.082Z,99171.78
2023-02-27T12:44:44.108Z,99177.06
2023-02-27T12:47:37.547Z,99168.19
2023-02-27T12:50:15.357Z,99169.53
2023-02-27T12:53:19.875Z,99172.22
2023-02-27T12:55:52.672Z,99168.19
2023-02-27T12:58:28.909Z,99170.06
2023-02-27T13:01:12.312Z,99174.34
2023-02-27T13:03:58.818Z,99163.84
2023-02-27T13:06:36.441Z,99161.72
2023-02-27T13:09:16.014Z,99161.88
2023-02-27T13:11:47.495Z,99178.38
2023-02-27T13:14:30.050Z,99171.47
2023-02-27T13:17:19.865Z,99169.63
2023-02-27T13:19:55.248Z,99165.59
2023-02-27T13:22:49.431Z,99157.09
2023-02-27T13:25:17.765Z,99165.09
2023-02-27T13:27:45.793Z,99170.19
2023-02-27T13:30:28.330Z,99166.69
2023-02-27T13:33:21.143Z,99157.06
2023-02-27T13:35:53.805Z,99159.19
2023-02-27T13:38:47.998Z,99149.75
2023-02-27T13:41:20.829Z,99167.72
2023-02-27T13:43:52.625Z,99167.03
2023-02-27T13:46:33.082Z,99173.81
2023-02-27T13:49:05.797Z,99173.56
2023-02-27T13:51:35.398Z,99164.25
2023-02-27T13:54:16.235Z,99161.56
2023-02-27T13:56:54.961Z,99164.50
2023-02-27T13:59:31.035Z,99178.47
2023-02-27T14:02:31.070Z,99158.38
2023-02-27T14:05:00.634Z,99158.75
2023-02-27T14:07:32.418Z,99173.22
2023-02-27T14:10:04.574Z,99168.03
2023-02-27T14:12:45.899Z,99165.91
2023-02-27T14:15:16.230Z,99173.00
2023-02-27T14:17:45.319Z,99160.00
2023-02-27T14:20:13.603Z,99173.28
2023-02-27T14:23:00.362Z,99169.72
2023-02-27T14:25:51.771Z,99178.69
2023-02-27T14:29:01.164Z,99176.25
2023-02-27T14:31:34.295Z,99178.19
2023-02-27T14:34:05.905Z,99183.91
2023-02-27T14:36:39.450Z,99188.13
2023-02-27T14:39:06.087Z,99184.63
2023-02-27T14:41:51.529Z,99183.59
2023-02-27T14:44:24.484Z,99182.88
2023-02-27T14:46:56.598Z,99178.19
2023-02-27T14:49:29.945Z,99175.66
2023-02-27T14:51:57.105Z,99175.31
2023-02-27T14:54:26.228Z,99191.06
2023-02-27T14:57:01.293Z,99195.63
2023-02-27T14:59:28.774Z,99199.22
2023-02-27T15:01:57.744Z,99197.69
2023-02-27T15:04:27.737Z,99209.56
2023-02-27T15:06:56.025Z,99204.84
2023-02-27T15:09:28.158Z,99205.78
2023-02-27T15:12:03.858Z,99199.84
2023-02-27T15:14:35.780Z,99207.88
2023-02-27T15:17:04.504Z,99212.66
2023-02-27T15:19:31.558Z,99210.19
2023-02-27T15:22:05.228Z,99218.63
2023-02-27T15:24:47.808Z,99220.41
2023-02-27T15:27:22.812Z,99228.34
2023-02-27T15:29:58.041Z,99234.91
2023-02-27T15:32:32.650Z,99232.22
2023-02-27T15:35:02.413Z,99233.38
2023-02-27T15:37:34.088Z,99230.88
2023-02-27T15:40:01.720Z,99237.53
2023-02-27T15:42:32.198Z,99228.72
2023-02-27T15:44:59.911Z,99230.13
2023-02-27T15:47:29.312Z,99235.00
2023-02-27T15:50:11.179Z,99236.34
2023-02-27T15:52:51.305Z,99237.69
2023-02-27T15:55:25.942Z,99242.34
2023-02-27T15:58:02.667Z,99247.53
2023-02-27T16:00:31.813Z,99248.44
2023-02-27T16:02:59.502Z,99251.56
2023-02-27T16:05:38.907Z,99254.09
2023-02-27T16:08:06.859Z,99259.53
2023-02-27T16:10:44.582Z,99263.47
2023-02-27T16:13:22.284Z,99273.22
2023-02-27T16:16:20.341Z,99274.09
2023-02-27T16:18:49.649Z,99274.31
2023-02-27T16:21:19.038Z,99272.69
2023-02-27T16:23:46.662Z,99275.81
2023-02-27T16:26:40.172Z,99279.97
2023-02-27T16:29:18.747Z,99284.13
2023-02-27T16:31:53.849Z,99286.63
2023-02-27T16:34:45.415Z,99288.50
2023-02-27T16:37:27.146Z,99288.72
2023-02-27T16:39:54.445Z,99295.94
2023-02-27T16:42:21.726Z,99288.56
2023-02-27T16:44:48.318Z,99313.91
2023-02-27T16:47:15.137Z,99304.06
2023-02-27T16:49:41.857Z,99316.47
2023-02-27T16:52:12.872Z,99310.97
2023-02-27T16:54:39.775Z,99311.84
2023-02-27T16:57:06.518Z,99315.38
2023-02-27T16:59:36.528Z,99314.13
2023-02-27T17:02:06.923Z,99319.28
2023-02-27T17:04:33.590Z,99323.41
2023-02-27T17:07:05.375Z,99313.31
2023-02-27T17:09:32.790Z,99325.63
2023-02-27T17:11:59.209Z,99336.72
2023-02-27T17:14:25.720Z,99328.94
2023-02-27T17:16:52.329Z,99331.38
2023-02-27T17:19:21.437Z,99334.28
2023-02-27T17:21:48.712Z,99327.25
2023-02-27T17:24:15.280Z,99336.31
2023-02-27T17:26:41.918Z,99338.41
2023-02-27T17:29:09.656Z,99349.53
2023-02-27T17:31:37.011Z,99353.03
2023-02-27T17:34:05.110Z,99342.97
2023-02-27T17:36:31.698Z,99344.25
2023-02-27T17:39:02.698Z,99350.81
2023-02-27T17:41:30.753Z,99352.91
2023-02-27T17:43:58.772Z,99352.72
2023-02-27T17:46:27.903Z,99360.16
2023-02-27T17:48:56.246Z,99367.34
2023-02-27T17:51:22.863Z,99368.56
2023-02-27T17:53:49.474Z,99370.25
2023-02-27T17:56:15.922Z,99369.63
2023-02-27T17:58:45.489Z,99361.44
2023-02-27T18:01:16.916Z,99370.91
2023-02-27T18:03:46.079Z,99369.28
2023-02-27T18:06:13.311Z,99380.56
2023-02-27T18:08:39.807Z,99378.13
2023-02-27T18:11:14.986Z,99377.72
2023-02-27T18:13:42.322Z,99389.22
2023-02-27T18:16:10.830Z,99384.91
2023-02-27T18:18:39.613Z,99385.72
2023-02-27T18:21:15.011Z,99386.16
2023-02-27T18:23:42.296Z,99386.97
2023-02-27T18:26:27.159Z,99389.25
2023-02-27T18:28:57.144Z,99391.31
2023-02-27T18:31:26.492Z,99388.25
2023-02-27T18:33:53.463Z,99394.66
2023-02-27T18:36:20.475Z,99392.78
2023-02-27T18:38:47.341Z,99391.97
2023-02-27T18:41:14.226Z,99386.00
2023-02-27T18:43:42.039Z,99393.78
2023-02-27T18:46:10.161Z,99396.28
2023-02-27T18:48:36.714Z,99404.47
2023-02-27T18:51:05.881Z,99401.44
2023-02-27T18:53:35.344Z,99398.75
2023-02-27T18:56:03.821Z,99400.03
2023-02-27T18:58:31.186Z,99404.72
2023-02-27T19:00:58.274Z,99398.78
2023-02-27T19:03:25.196Z,99403.94
2023-02-27T19:05:52.117Z,99398.41
2023-02-27T19:08:18.633Z,99395.56
2023-02-27T19:10:45.166Z,99398.03
2023-02-27T19:13:12.188Z,99395.59
2023-02-27T19:15:39.614Z,99400.16
2023-02-27T19:18:06.832Z,99396.84
2023-02-27T19:20:34.766Z,99398.09
2023-02-27T19:23:02.744Z,99391.53
2023-02-27T19:25:29.992Z,99404.69
2023-02-27T19:27:57.258Z,99402.84
2023-02-27T19:30:25.331Z,99409.00
2023-02-27T19:32:52.685Z,99412.06
2023-02-27T19:35:20.620Z,99415.16
2023-02-27T19:37:48.811Z,99409.63
2023-02-27T19:40:15.959Z,99414.78
2023-02-27T19:42:44.586Z,99412.13
2023-02-27T19:45:12.724Z,99405.75
2023-02-27T19:47:39.456Z,99413.97
2023-02-27T19:50:07.022Z,99409.63
2023-02-27T19:52:37.283Z,99405.56
2023-02-27T19:55:04.893Z,99401.47
2023-02-27T19:57:33.825Z,99402.50
2023-02-27T20:00:00.420Z,99403.91
2023-02-27T20:02:26.873Z,99402.66
2023-02-27T20:04:54.636Z,99399.41
2023-02-27T20:07:21.113Z,99399.81
2023-02-27T20:09:47.562Z,99394.06
2023-02-27T20:12:14.346Z,99408.44
2023-02-27T20:14:41.273Z,99407.59
2023-02-27T20:17:08.206Z,99403.47
2023-02-27T20:19:36.371Z,99400.44
2023-02-27T20:22:03.522Z,99402.28
2023-02-27T20:24:30.056Z,99400.63
2023-02-27T20:26:59.140Z,99392.44
2023-02-27T20:29:27.152Z,99401.84
2023-02-27T20:31:55.357Z,99402.47
2023-02-27T20:34:26.317Z,99396.72
2023-02-27T20:36:55.188Z,99397.97
2023-02-27T20:39:23.751Z,99392.00
2023-02-27T20:41:50.313Z,99397.16
2023-02-27T20:44:16.781Z,99394.47
2023-02-27T20:46:44.015Z,99392.00
2023-02-27T20:49:14.409Z,99392.00
2023-02-27T20:51:41.283Z,99386.69
2023-02-27T20:54:11.312Z,99382.19
2023-02-27T20:56:41.272Z,99384.63
2023-02-27T20:59:11.785Z,99384.84
2023-02-27T21:01:38.929Z,99372.72
2023-02-27T21:04:05.911Z,99381.16
2023-02-27T21:06:32.490Z,99380.13
2023-02-27T21:09:03.300Z,99369.25
2023-02-27T21:11:31.658Z,99378.47
2023-02-27T21:14:04.156Z,99375.59
2023-02-27T21:16:30.578Z,99379.69
2023-02-27T21:18:57.085Z,99379.53
2023-02-27T21:21:33.003Z,99378.06
2023-02-27T21:23:59.548Z,99376.00
2023-02-27T21:26:34.860Z,99377.69
2023-02-27T21:29:10.932Z,99380.94
2023-02-27T21:31:38.918Z,99386.66
2023-02-27T21:34:08.714Z,99377.69
2023-02-27T21:36:38.178Z,99372.34
2023-02-27T21:39:07.100Z,99375.81
2023-02-27T21:41:34.761Z,99375.19
2023-02-27T21:44:03.299Z,99366.59
2023-02-27T21:46:30.233Z,99364.53
2023-02-27T21:48:57.124Z,99357.78
2023-02-27T21:51:38.782Z,99358.38
2023-02-27T21:54:06.734Z,99359.63
2023-02-27T21:56:33.132Z,99351.41
2023-02-27T21:59:01.687Z,99348.53
2023-02-27T22:01:29.380Z,99352.22
2023-02-27T22:03:56.186Z,99346.28
2023-02-27T22:06:24.726Z,99345.47
2023-02-27T22:08:56.497Z,99349.56
2023-02-27T22:11:24.514Z,99349.34
2023-02-27T22:13:50.888Z,99340.97
2023-02-27T22:16:18.124Z,99344.44
2023-02-27T22:18:45.189Z,99340.94
2023-02-27T22:21:16.117Z,99351.00
2023-02-27T22:23:43.424Z,99347.09
2023-02-27T22:26:13.348Z,99345.66
2023-02-27T22:28:41.316Z,99342.78
2023-02-27T22:31:12.479Z,99348.94
2023-02-27T22:33:41.043Z,99349.75
2023-02-27T22:36:10.214Z,99356.69
2023-02-27T22:38:37.064Z,99348.91
2023-02-27T22:41:15.886Z,99354.00
2023-02-27T22:43:44.881Z,99348.28
2023-02-27T22:46:13.304Z,99351.53
2023-02-27T22:48:40.248Z,99348.06
2023-02-27T22:51:11.172Z,99346.63
2023-02-27T22:53:40.921Z,99336.78
2023-02-27T22:56:15.453Z,99343.53
2023-02-27T22:58:43.737Z,99339.47
2023-02-27T23:01:17.757Z,99331.25
2023-02-27T23:03:46.469Z,99339.44
2023-02-27T23:06:17.701Z,99337.38
2023-02-27T23:08:44.285Z,99341.06
2023-02-27T23:11:12.207Z,99344.75
2023-02-27T23:13:38.861Z,99343.13
2023-02-27T23:16:13.349Z,99342.69
2023-02-27T23:18:50.888Z,99340.84
2023-02-27T23:21:19.660Z,99340.84
2023-02-27T23:23:46.934Z,99337.78
2023-02-27T23:26:14.152Z,99342.66
2023-02-27T23:28:41.480Z,99340.19
2023-02-27T23:31:08.187Z,99338.31
2023-02-27T23:33:35.238Z,99342.63
2023-02-27T23:36:02.210Z,99342.00
2023-02-27T23:38:28.747Z,99344.47
2023-02-27T23:40:55.435Z,99339.75
2023-02-27T23:43:22.659Z,99336.28
2023-02-27T23:45:49.162Z,99338.31
2023-02-27T23:48:15.826Z,99327.84
2023-02-27T23:50:44.556Z,99338.50
2023-02-27T23:53:13.298Z,99332.78
2023-02-27T23:55:40.937Z,99343.03
2023-02-27T23:58:09.727Z,99337.09
